CheckWX is a tool to help pilots better visualize weather data.  It is not intended as a substitute for an official pre-flight weather briefing.

13:07:50 UTC

ENFB METAR
Oslo, Fornebu Airport
Oslo, Norway
Current

48 mins ago

ENFB 181220Z AUTO 20030KT 9999NDV BKN013/// 08/06 Q0996 W///S5
Observed
Feb-18 @ 12:20 UTC
Wind
  • 200° at 30 KTS
Visibility
Cloud Levels
  • Broken at 1,300' AGL
Temperature
C / 46°F
Dewpoint
C / 43°F
Humidity
87%
Altimeter
29.41" Hg
Pressure
995.92 hPa
Previous

1 hour ago

ENFB 181150Z AUTO 20030KT 9999NDV BKN013/// 08/06 Q0996 W///S5
Observed
Feb-18 @ 11:50 UTC
Wind
  • 200° at 30 KTS
Visibility
Cloud Levels
  • Broken at 1,300' AGL
Temperature
C / 46°F
Dewpoint
C / 43°F
Humidity
87%
Altimeter
29.41" Hg
Pressure
995.92 hPa
Previous

2 hours ago

ENFB 181120Z AUTO 20032KT 9999NDV BKN013/// 08/06 Q0996 W///S5
Observed
Feb-18 @ 11:20 UTC
Wind
  • 200° at 32 KTS
Visibility
Cloud Levels
  • Broken at 1,300' AGL
Temperature
C / 46°F
Dewpoint
C / 43°F
Humidity
87%
Altimeter
29.41" Hg
Pressure
995.92 hPa